createdAt,value
2022-12-14T00:01:26.732Z,66.02
2022-12-14T00:03:55.260Z,66.28
2022-12-14T00:06:25.424Z,65.86
2022-12-14T00:08:55.613Z,65.63
2022-12-14T00:11:23.013Z,65.99
2022-12-14T00:13:54.098Z,66.38
2022-12-14T00:16:24.164Z,66.22
2022-12-14T00:18:53.348Z,65.99
2022-12-14T00:21:20.752Z,66.47
2022-12-14T00:23:50.082Z,66.35
2022-12-14T00:26:19.652Z,66.79
2022-12-14T00:28:49.134Z,65.14
2022-12-14T00:31:18.355Z,66.21
2022-12-14T00:33:45.263Z,65.75
2022-12-14T00:36:13.845Z,65.77
2022-12-14T00:38:41.218Z,65.99
2022-12-14T00:41:09.486Z,66.54
2022-12-14T00:43:36.843Z,66.41
2022-12-14T00:46:05.730Z,66.82
2022-12-14T00:48:35.066Z,66.49
2022-12-14T00:51:02.216Z,66.71
2022-12-14T00:53:29.112Z,65.95
2022-12-14T00:55:57.164Z,67.44
2022-12-14T00:58:25.226Z,66.57
2022-12-14T01:01:00.338Z,67.93
2022-12-14T01:03:27.812Z,67.88
2022-12-14T01:05:56.618Z,68.02
2022-12-14T01:08:24.302Z,67.67
2022-12-14T01:10:51.195Z,66.15
2022-12-14T01:13:18.192Z,66.50
2022-12-14T01:15:45.043Z,66.24
2022-12-14T01:18:11.927Z,66.44
2022-12-14T01:20:38.727Z,66.16
2022-12-14T01:23:06.860Z,66.00
2022-12-14T01:25:34.048Z,65.42
2022-12-14T01:28:00.901Z,65.37
2022-12-14T01:30:27.872Z,65.91
2022-12-14T01:32:58.817Z,65.76
2022-12-14T01:35:25.891Z,66.03
2022-12-14T01:37:52.726Z,66.28
2022-12-14T01:40:20.965Z,65.86
2022-12-14T01:42:48.107Z,67.43
2022-12-14T01:45:19.912Z,67.73
2022-12-14T01:47:52.198Z,69.74
2022-12-14T01:50:32.250Z,67.53
2022-12-14T01:53:06.013Z,67.20
2022-12-14T01:55:41.192Z,68.34
2022-12-14T01:58:18.606Z,69.29
2022-12-14T02:00:45.998Z,67.92
2022-12-14T02:03:19.804Z,67.80
2022-12-14T02:05:52.723Z,68.37
2022-12-14T02:08:23.932Z,68.87
2022-12-14T02:10:55.215Z,69.08
2022-12-14T02:13:29.200Z,68.83
2022-12-14T02:15:56.826Z,70.08
2022-12-14T02:18:26.501Z,69.84
2022-12-14T02:21:21.219Z,70.11
2022-12-14T02:24:30.040Z,71.10
2022-12-14T02:27:15.251Z,71.43
2022-12-14T02:30:02.647Z,71.82
2022-12-14T02:33:20.108Z,71.58
2022-12-14T02:35:57.494Z,71.48
2022-12-14T02:38:45.775Z,72.33
2022-12-14T02:41:23.369Z,72.73
2022-12-14T02:44:04.277Z,72.48
2022-12-14T02:46:45.094Z,72.22
2022-12-14T02:49:38.272Z,72.83
2022-12-14T02:52:19.865Z,73.20
2022-12-14T02:54:57.769Z,73.41
2022-12-14T02:57:32.530Z,73.53
2022-12-14T03:00:05.626Z,73.90
2022-12-14T03:02:39.841Z,74.64
2022-12-14T03:05:10.417Z,74.68
2022-12-14T03:07:45.592Z,74.25
2022-12-14T03:10:35.655Z,73.91
2022-12-14T03:13:16.828Z,75.16
2022-12-14T03:15:53.522Z,75.62
2022-12-14T03:18:28.666Z,76.06
2022-12-14T03:20:59.548Z,76.61
2022-12-14T03:23:35.011Z,76.75
2022-12-14T03:26:11.775Z,75.32
2022-12-14T03:28:47.024Z,76.75
2022-12-14T03:31:22.127Z,76.26
2022-12-14T03:33:58.684Z,74.87
2022-12-14T03:36:33.817Z,76.26
2022-12-14T03:39:07.476Z,75.40
2022-12-14T03:41:48.969Z,75.76
2022-12-14T03:44:31.405Z,74.25
2022-12-14T03:47:11.181Z,75.41
2022-12-14T03:49:58.810Z,76.04
2022-12-14T03:52:36.415Z,75.61
2022-12-14T03:55:23.253Z,75.18
2022-12-14T03:58:11.837Z,74.88
2022-12-14T04:00:51.593Z,75.26
2022-12-14T04:03:33.412Z,74.89
2022-12-14T04:06:08.782Z,74.98
2022-12-14T04:08:45.188Z,75.16
2022-12-14T04:11:16.628Z,75.22
2022-12-14T04:13:56.005Z,75.43
2022-12-14T04:16:32.995Z,74.79
2022-12-14T04:19:09.691Z,75.01
2022-12-14T04:21:45.837Z,74.90
2022-12-14T04:24:21.920Z,74.73
2022-12-14T04:26:56.451Z,74.21
2022-12-14T04:29:29.731Z,74.27
2022-12-14T04:32:03.790Z,74.75
2022-12-14T04:34:35.968Z,74.13
2022-12-14T04:37:12.120Z,73.67
2022-12-14T04:39:48.910Z,74.09
2022-12-14T04:42:20.157Z,74.57
2022-12-14T04:44:53.381Z,73.98
2022-12-14T04:47:28.742Z,74.42
2022-12-14T04:50:04.084Z,73.96
2022-12-14T04:52:40.751Z,74.22
2022-12-14T04:55:24.127Z,72.95
2022-12-14T04:57:59.564Z,73.89
2022-12-14T05:00:29.516Z,73.76
2022-12-14T05:03:20.421Z,73.64
2022-12-14T05:06:05.656Z,73.47
2022-12-14T05:09:03.336Z,73.99
2022-12-14T05:11:53.078Z,73.06
2022-12-14T05:14:32.123Z,73.63
2022-12-14T05:17:02.293Z,73.58
2022-12-14T05:19:30.782Z,74.44
2022-12-14T05:22:04.627Z,74.03
2022-12-14T05:27:44.194Z,73.17
2022-12-14T05:30:12.457Z,73.27
2022-12-14T05:32:39.967Z,75.48
2022-12-14T05:35:10.178Z,73.20
2022-12-14T05:37:37.526Z,72.71
2022-12-14T05:40:06.259Z,72.63
2022-12-14T05:42:34.869Z,73.02
2022-12-14T05:45:22.110Z,72.68
2022-12-14T05:47:49.150Z,72.07
2022-12-14T05:50:16.255Z,72.56
2022-12-14T05:52:42.985Z,72.46
2022-12-14T05:55:09.899Z,72.30
2022-12-14T05:57:36.644Z,74.20
2022-12-14T06:00:04.218Z,73.22
2022-12-14T06:02:33.167Z,73.24
2022-12-14T06:05:00.296Z,74.13
2022-12-14T06:07:28.340Z,73.90
2022-12-14T06:09:55.444Z,72.89
2022-12-14T06:12:22.509Z,73.03
2022-12-14T06:14:49.282Z,72.95
2022-12-14T06:17:16.081Z,72.85
2022-12-14T06:19:49.742Z,73.65
2022-12-14T06:22:17.675Z,73.41
2022-12-14T06:24:44.490Z,74.84
2022-12-14T06:27:11.330Z,75.73
2022-12-14T06:29:38.122Z,75.62
2022-12-14T06:32:05.459Z,75.89
2022-12-14T06:34:36.896Z,75.01
2022-12-14T06:37:06.810Z,74.81
2022-12-14T06:39:34.002Z,76.25
2022-12-14T06:42:00.780Z,77.21
2022-12-14T06:44:27.774Z,75.35
2022-12-14T06:46:54.703Z,77.02
2022-12-14T06:49:22.296Z,77.72
2022-12-14T06:51:49.394Z,77.26
2022-12-14T06:54:19.227Z,77.82
2022-12-14T06:56:47.603Z,75.95
2022-12-14T06:59:16.044Z,76.11
2022-12-14T07:01:43.153Z,77.33
2022-12-14T07:04:10.247Z,76.79
2022-12-14T07:06:40.187Z,77.81
2022-12-14T07:09:11.929Z,77.04
2022-12-14T07:11:41.544Z,77.72
2022-12-14T07:14:16.498Z,78.30
2022-12-14T07:16:48.315Z,79.68
2022-12-14T07:19:18.059Z,79.82
2022-12-14T07:21:46.145Z,80.36
2022-12-14T07:24:14.191Z,82.53
2022-12-14T07:26:42.730Z,81.65
2022-12-14T07:29:09.889Z,81.43
2022-12-14T07:31:37.157Z,81.49
2022-12-14T07:34:04.324Z,80.62
2022-12-14T07:36:35.153Z,81.26
2022-12-14T07:39:02.609Z,80.76
2022-12-14T07:41:31.105Z,80.70
2022-12-14T07:44:00.577Z,80.17
2022-12-14T07:46:30.595Z,80.17
2022-12-14T07:48:59.225Z,80.27
2022-12-14T07:51:29.754Z,80.93
2022-12-14T07:53:58.933Z,80.87
2022-12-14T07:56:29.042Z,80.22
2022-12-14T07:59:00.280Z,80.51
2022-12-14T08:01:33.583Z,80.42
2022-12-14T08:04:08.351Z,82.23
2022-12-14T08:06:38.624Z,81.56
2022-12-14T08:09:08.983Z,81.71
2022-12-14T08:11:36.623Z,81.17
2022-12-14T08:14:09.132Z,81.88
2022-12-14T08:16:44.508Z,81.42
2022-12-14T08:19:12.603Z,81.17
2022-12-14T08:21:40.661Z,80.34
2022-12-14T08:24:10.909Z,80.71
2022-12-14T08:26:40.875Z,80.52
2022-12-14T08:29:11.235Z,81.00
2022-12-14T08:31:39.323Z,82.98
2022-12-14T08:34:06.747Z,83.59
2022-12-14T08:36:35.312Z,84.16
2022-12-14T08:39:06.142Z,84.06
2022-12-14T08:41:34.075Z,84.13
2022-12-14T08:44:03.394Z,85.17
2022-12-14T08:46:35.158Z,84.87
2022-12-14T08:49:02.057Z,85.03
2022-12-14T08:51:29.583Z,85.15
2022-12-14T08:53:57.423Z,84.97
2022-12-14T08:56:27.308Z,84.79
2022-12-14T08:58:54.760Z,84.43
2022-12-14T09:01:30.292Z,83.70
2022-12-14T09:04:05.111Z,83.72
2022-12-14T09:06:35.021Z,84.57
2022-12-14T09:09:01.856Z,83.89
2022-12-14T09:11:28.978Z,84.08
2022-12-14T09:13:56.943Z,83.91
2022-12-14T09:16:25.833Z,84.17
2022-12-14T09:18:53.894Z,83.84
2022-12-14T09:21:22.338Z,84.34
2022-12-14T09:23:52.604Z,84.58
2022-12-14T09:26:23.725Z,83.96
2022-12-14T09:28:54.442Z,84.33
2022-12-14T09:31:25.981Z,83.85
2022-12-14T09:33:53.667Z,82.94
2022-12-14T09:36:24.459Z,82.77
2022-12-14T09:38:52.712Z,82.57
2022-12-14T09:41:36.394Z,81.86
2022-12-14T09:44:18.884Z,83.01
2022-12-14T09:46:59.228Z,82.53
2022-12-14T09:49:30.803Z,82.73
2022-12-14T09:52:01.459Z,82.69
2022-12-14T09:54:34.154Z,82.95
2022-12-14T09:57:07.017Z,82.88
2022-12-14T09:59:34.622Z,83.28
2022-12-14T10:02:31.051Z,83.67
2022-12-14T10:05:29.778Z,83.62
2022-12-14T10:08:10.614Z,84.89
2022-12-14T10:10:53.038Z,85.18
2022-12-14T10:13:35.452Z,85.26
2022-12-14T10:16:18.514Z,85.25
2022-12-14T10:19:13.394Z,85.38
2022-12-14T10:21:49.608Z,85.55
2022-12-14T10:24:25.762Z,85.33
2022-12-14T10:26:55.218Z,86.32
2022-12-14T10:29:32.650Z,85.41
2022-12-14T10:32:20.427Z,85.36
2022-12-14T10:34:48.408Z,85.18
2022-12-14T10:37:27.249Z,85.17
2022-12-14T10:40:22.095Z,84.65
2022-12-14T10:43:28.722Z,85.15
2022-12-14T10:46:14.294Z,84.77
2022-12-14T10:48:54.711Z,85.68
2022-12-14T10:51:30.563Z,85.42
2022-12-14T10:54:17.620Z,85.36
2022-12-14T10:56:50.293Z,85.67
2022-12-14T10:59:33.624Z,85.46
2022-12-14T11:02:08.647Z,85.76
2022-12-14T11:04:39.298Z,85.66
2022-12-14T11:07:09.365Z,85.42
2022-12-14T11:09:37.920Z,85.48
2022-12-14T11:12:16.740Z,85.48
2022-12-14T11:14:55.130Z,85.07
2022-12-14T11:17:41.435Z,85.16
2022-12-14T11:20:19.588Z,85.34
2022-12-14T11:22:49.940Z,85.54
2022-12-14T11:25:38.471Z,85.56
2022-12-14T11:28:35.929Z,85.66
2022-12-14T11:31:07.478Z,85.64
2022-12-14T11:33:39.325Z,85.41
2022-12-14T11:36:08.413Z,85.34
2022-12-14T11:38:35.658Z,85.37
2022-12-14T11:41:10.983Z,85.48
2022-12-14T11:43:40.609Z,85.46
2022-12-14T11:46:07.873Z,85.75
2022-12-14T11:48:35.241Z,85.03
2022-12-14T11:51:12.510Z,84.99
2022-12-14T11:53:40.659Z,84.34
2022-12-14T11:56:15.710Z,84.79
2022-12-14T11:58:53.518Z,84.33
2022-12-14T12:01:26.552Z,84.99
2022-12-14T12:03:57.840Z,85.44
2022-12-14T12:06:29.077Z,85.13
2022-12-14T12:09:01.944Z,85.00
2022-12-14T12:11:34.496Z,85.11
2022-12-14T12:14:25.845Z,84.54
2022-12-14T12:16:53.026Z,84.34
2022-12-14T12:19:30.001Z,85.31
2022-12-14T12:22:03.161Z,84.69
2022-12-14T12:25:00.950Z,84.25
2022-12-14T12:27:28.464Z,84.18
2022-12-14T12:30:06.178Z,83.19
2022-12-14T12:32:42.483Z,84.01
2022-12-14T12:35:18.430Z,84.38
2022-12-14T12:37:51.572Z,84.93
2022-12-14T12:40:25.681Z,84.74
2022-12-14T12:43:02.142Z,84.69
2022-12-14T12:45:39.161Z,84.02
2022-12-14T12:48:15.451Z,84.06
2022-12-14T12:50:49.869Z,83.88
2022-12-14T12:53:26.047Z,84.09
2022-12-14T12:56:03.068Z,83.42
2022-12-14T12:58:35.370Z,84.38
2022-12-14T13:01:19.154Z,84.57
2022-12-14T13:03:52.383Z,84.89
2022-12-14T13:06:27.546Z,84.85
2022-12-14T13:08:59.406Z,85.14
2022-12-14T13:11:39.671Z,84.80
2022-12-14T13:14:24.891Z,84.85
2022-12-14T13:16:55.346Z,85.03
2022-12-14T13:19:54.767Z,84.31
2022-12-14T13:22:27.598Z,83.56
2022-12-14T13:25:00.145Z,84.16
2022-12-14T13:28:12.356Z,83.91
2022-12-14T13:31:09.654Z,84.36
2022-12-14T13:34:15.073Z,84.68
2022-12-14T13:37:11.611Z,84.49
2022-12-14T13:40:14.846Z,85.08
2022-12-14T13:42:59.671Z,84.78
2022-12-14T13:45:36.561Z,84.19
2022-12-14T13:48:14.577Z,84.42
2022-12-14T13:50:57.703Z,84.32
2022-12-14T13:53:36.270Z,84.57
2022-12-14T13:56:05.099Z,84.18
2022-12-14T13:58:38.876Z,83.74
2022-12-14T14:01:07.047Z,84.28
2022-12-14T14:04:19.594Z,84.44
2022-12-14T14:06:49.271Z,84.41
2022-12-14T14:10:03.565Z,84.43
2022-12-14T14:12:40.292Z,84.41
2022-12-14T14:16:03.981Z,84.04
2022-12-14T14:18:32.123Z,84.33
2022-12-14T14:21:52.573Z,84.41
2022-12-14T14:24:27.483Z,84.65
2022-12-14T14:27:10.958Z,84.58
2022-12-14T14:29:47.575Z,84.77
2022-12-14T14:32:41.572Z,85.12
2022-12-14T14:35:27.118Z,84.92
2022-12-14T14:37:58.307Z,85.44
2022-12-14T14:40:51.406Z,85.76
2022-12-14T14:43:29.046Z,87.79
2022-12-14T14:46:02.196Z,89.12
2022-12-14T14:48:35.297Z,88.31
2022-12-14T14:51:19.308Z,87.67
2022-12-14T14:53:50.400Z,87.71
2022-12-14T14:56:37.239Z,87.90
2022-12-14T14:59:50.612Z,87.08
2022-12-14T15:02:33.503Z,88.19
2022-12-14T15:05:40.948Z,87.85
2022-12-14T15:07:54.082Z,87.46
2022-12-14T15:10:32.320Z,87.65
2022-12-14T15:13:06.515Z,88.29
2022-12-14T15:15:41.236Z,88.37
2022-12-14T15:18:19.211Z,88.12
2022-12-14T15:20:56.965Z,88.38
2022-12-14T15:23:24.860Z,88.27
2022-12-14T15:26:01.394Z,87.64
2022-12-14T15:28:29.982Z,87.52
2022-12-14T15:30:58.664Z,87.62
2022-12-14T15:33:30.968Z,87.81
2022-12-14T15:36:05.308Z,87.64
2022-12-14T15:38:35.433Z,87.47
2022-12-14T15:41:05.115Z,87.16
2022-12-14T15:43:44.532Z,86.72
2022-12-14T15:46:17.611Z,87.24
2022-12-14T15:48:45.270Z,86.88
2022-12-14T15:51:17.883Z,87.09
2022-12-14T15:53:49.897Z,87.55
2022-12-14T15:56:26.902Z,86.92
2022-12-14T15:58:58.632Z,86.75
2022-12-14T16:01:31.570Z,86.92
2022-12-14T16:04:03.862Z,87.02
2022-12-14T16:06:37.986Z,86.59
2022-12-14T16:09:14.649Z,86.83
2022-12-14T16:11:47.061Z,86.76
2022-12-14T16:14:24.976Z,86.78
2022-12-14T16:16:53.210Z,86.74
2022-12-14T16:19:28.614Z,86.85
2022-12-14T16:22:21.609Z,86.99
2022-12-14T16:25:13.930Z,86.25
2022-12-14T16:27:44.645Z,86.50
2022-12-14T16:30:28.029Z,85.97
2022-12-14T16:33:14.947Z,85.89
2022-12-14T16:35:42.545Z,85.98
2022-12-14T16:38:14.781Z,85.84
2022-12-14T16:40:52.681Z,85.75
2022-12-14T16:43:29.593Z,86.04
2022-12-14T16:46:15.456Z,86.10
2022-12-14T16:48:50.234Z,86.33
2022-12-14T16:52:05.818Z,86.32
2022-12-14T16:54:29.067Z,85.88
2022-12-14T16:57:02.305Z,85.98
2022-12-14T16:59:40.350Z,86.22
2022-12-14T17:02:30.137Z,86.02
2022-12-14T17:05:00.231Z,85.84
2022-12-14T17:07:31.355Z,86.47
2022-12-14T17:09:58.293Z,86.46
2022-12-14T17:12:26.301Z,86.51
2022-12-14T17:14:53.768Z,86.51
2022-12-14T17:17:32.277Z,86.19
2022-12-14T17:19:59.709Z,86.28
2022-12-14T17:22:31.500Z,86.58
2022-12-14T17:24:58.963Z,86.09
2022-12-14T17:27:26.547Z,86.15
2022-12-14T17:29:55.327Z,86.06
2022-12-14T17:32:29.033Z,86.13
2022-12-14T17:34:56.520Z,86.13
2022-12-14T17:37:24.643Z,85.77
2022-12-14T17:39:52.247Z,86.50
2022-12-14T17:42:22.120Z,85.87
2022-12-14T17:44:55.385Z,85.73
2022-12-14T17:47:24.791Z,85.77
2022-12-14T17:49:51.630Z,85.73
2022-12-14T17:52:21.302Z,85.97
2022-12-14T17:54:48.310Z,86.46
2022-12-14T17:57:17.399Z,86.46
2022-12-14T17:59:47.516Z,86.14
2022-12-14T18:02:31.914Z,86.14
2022-12-14T18:04:59.537Z,85.67
2022-12-14T18:07:27.560Z,85.64
2022-12-14T18:09:54.436Z,85.78
2022-12-14T18:12:23.875Z,86.08
2022-12-14T18:14:51.307Z,86.24
2022-12-14T18:17:19.084Z,85.55
2022-12-14T18:19:47.797Z,85.91
2022-12-14T18:22:16.861Z,85.96
2022-12-14T18:24:43.661Z,85.80
2022-12-14T18:27:12.954Z,85.81
2022-12-14T18:29:39.827Z,85.28
2022-12-14T18:32:06.607Z,85.61
2022-12-14T18:34:33.410Z,85.41
2022-12-14T18:37:01.899Z,85.33
2022-12-14T18:39:28.674Z,85.26
2022-12-14T18:41:55.694Z,85.78
2022-12-14T18:44:22.600Z,85.38
2022-12-14T18:46:49.736Z,84.92
2022-12-14T18:49:16.556Z,85.09
2022-12-14T18:51:43.893Z,85.10
2022-12-14T18:54:12.087Z,85.00
2022-12-14T18:56:40.730Z,85.40
2022-12-14T18:59:07.792Z,85.24
2022-12-14T19:01:34.746Z,85.22
2022-12-14T19:04:02.009Z,84.71
2022-12-14T19:06:45.519Z,85.10
2022-12-14T19:09:14.905Z,85.05
2022-12-14T19:11:42.441Z,84.64
2022-12-14T19:14:10.127Z,85.09
2022-12-14T19:16:37.534Z,84.46
2022-12-14T19:19:04.371Z,84.43
2022-12-14T19:21:31.414Z,84.72
2022-12-14T19:23:58.692Z,86.19
2022-12-14T19:26:27.240Z,84.84
2022-12-14T19:28:54.259Z,84.43
2022-12-14T19:31:21.198Z,84.46
2022-12-14T19:33:48.179Z,84.97
2022-12-14T19:36:15.056Z,84.72
2022-12-14T19:38:42.151Z,84.63
2022-12-14T19:41:12.032Z,84.18
2022-12-14T19:43:40.252Z,84.49
2022-12-14T19:46:08.890Z,84.55
2022-12-14T19:48:36.659Z,83.98
2022-12-14T19:51:04.546Z,83.82
2022-12-14T19:53:32.173Z,83.86
2022-12-14T19:55:59.375Z,83.84
2022-12-14T19:58:26.933Z,84.05
2022-12-14T20:00:56.454Z,83.78
2022-12-14T20:03:23.922Z,83.90
2022-12-14T20:05:53.239Z,83.24
2022-12-14T20:08:20.417Z,83.72
2022-12-14T20:11:17.507Z,83.73
2022-12-14T20:13:44.551Z,83.09
2022-12-14T20:16:17.572Z,82.81
2022-12-14T20:18:45.946Z,83.13
2022-12-14T20:21:21.908Z,82.88
2022-12-14T20:23:50.523Z,82.91
2022-12-14T20:26:22.234Z,83.15
2022-12-14T20:28:51.246Z,83.04
2022-12-14T20:31:20.263Z,83.06
2022-12-14T20:33:47.965Z,83.45
2022-12-14T20:36:14.913Z,83.30
2022-12-14T20:38:41.814Z,83.19
2022-12-14T20:41:11.224Z,83.56
2022-12-14T20:43:41.099Z,83.58
2022-12-14T20:46:27.404Z,83.50
2022-12-14T20:48:55.223Z,82.66
2022-12-14T20:51:22.758Z,82.80
2022-12-14T20:53:50.142Z,83.60
2022-12-14T20:56:17.263Z,83.89
2022-12-14T20:58:48.214Z,83.77
2022-12-14T21:01:17.373Z,84.04
2022-12-14T21:03:46.386Z,83.88
2022-12-14T21:06:14.680Z,83.72
2022-12-14T21:08:41.965Z,83.68
2022-12-14T21:11:08.950Z,83.56
2022-12-14T21:13:35.744Z,84.19
2022-12-14T21:16:02.555Z,83.48
2022-12-14T21:18:29.445Z,83.96
2022-12-14T21:20:57.697Z,84.02
2022-12-14T21:23:24.869Z,83.84
2022-12-14T21:25:51.789Z,84.08
2022-12-14T21:28:18.667Z,84.41
2022-12-14T21:30:45.632Z,83.94
2022-12-14T21:33:12.487Z,84.13
2022-12-14T21:35:40.412Z,84.09
2022-12-14T21:38:08.646Z,83.35
2022-12-14T21:40:35.461Z,83.21
2022-12-14T21:43:02.254Z,82.56
2022-12-14T21:45:29.447Z,82.56
2022-12-14T21:47:56.300Z,82.56
2022-12-14T21:50:23.237Z,82.67
2022-12-14T21:52:50.291Z,82.18
2022-12-14T21:55:18.706Z,82.46
2022-12-14T21:57:49.663Z,82.40
2022-12-14T22:00:18.406Z,83.04
2022-12-14T22:02:45.325Z,83.16
2022-12-14T22:05:12.317Z,83.04
2022-12-14T22:07:39.206Z,83.31
2022-12-14T22:10:07.290Z,83.20
2022-12-14T22:12:35.511Z,83.04
2022-12-14T22:15:02.346Z,83.11
2022-12-14T22:17:29.311Z,83.31
2022-12-14T22:19:56.122Z,83.47
2022-12-14T22:22:23.139Z,83.88
2022-12-14T22:24:50.669Z,83.49
2022-12-14T22:27:17.563Z,83.08
2022-12-14T22:29:45.832Z,82.73
2022-12-14T22:32:13.067Z,82.70
2022-12-14T22:34:40.089Z,82.07
2022-12-14T22:37:07.017Z,82.38
2022-12-14T22:39:34.351Z,82.44
2022-12-14T22:42:01.238Z,82.11
2022-12-14T22:44:28.705Z,82.29
2022-12-14T22:46:56.813Z,82.30
2022-12-14T22:49:24.136Z,82.39
2022-12-14T22:51:51.111Z,81.91
2022-12-14T22:54:22.909Z,83.10
2022-12-14T22:56:58.290Z,82.60
2022-12-14T22:59:33.588Z,82.46
2022-12-14T23:02:03.036Z,82.22
2022-12-14T23:04:30.972Z,82.00
2022-12-14T23:06:57.813Z,81.94
2022-12-14T23:09:24.689Z,82.31
2022-12-14T23:11:52.247Z,82.39
2022-12-14T23:14:20.224Z,82.56
2022-12-14T23:16:49.998Z,81.85
2022-12-14T23:19:18.935Z,81.86
2022-12-14T23:21:45.842Z,82.30
2022-12-14T23:24:12.743Z,82.20
2022-12-14T23:26:40.141Z,81.54
2022-12-14T23:29:07.002Z,82.14
2022-12-14T23:31:34.132Z,81.38
2022-12-14T23:34:00.989Z,82.04
2022-12-14T23:36:29.267Z,81.82
2022-12-14T23:38:56.041Z,82.33
2022-12-14T23:41:22.850Z,82.20
2022-12-14T23:43:49.604Z,82.46
2022-12-14T23:46:16.410Z,82.78
2022-12-14T23:48:43.688Z,82.36
2022-12-14T23:51:10.416Z,82.28
2022-12-14T23:53:38.558Z,82.91
2022-12-14T23:56:05.747Z,82.59
2022-12-14T23:58:32.802Z,83.22
